CheckWX is a tool to help pilots better visualize weather data.  It is not intended as a substitute for an official pre-flight weather briefing.

13:09:19 UTC

CYZR METAR
Sarnia Chris Hadfield Airport
Sarnia, Canada
Current

1 hour ago

CYZR 221200Z AUTO 34005KT 9SM CLR M05/M07 A3041 RMK SLP308
Observed
Feb-22 @ 12:00 UTC
Wind
  • 340° at 5 KTS
Visibility
9 SM
Flight Rules
VFR
Cloud Levels
  • Clear skies
Temperature
-5°C / 23°F
Dewpoint
-7°C / 19°F
Humidity
86%
Altimeter
30.41" Hg
Pressure
1030.8 hPa
Previous

2 hours ago

CYZR 221100Z AUTO 33005KT 9SM CLR M04/M07 A3039 RMK SLP303
Observed
Feb-22 @ 11:00 UTC
Wind
  • 330° at 5 KTS
Visibility
9 SM
Flight Rules
VFR
Cloud Levels
  • Clear skies
Temperature
-4°C / 25°F
Dewpoint
-7°C / 19°F
Humidity
80%
Altimeter
30.39" Hg
Pressure
1030.3 hPa
Previous

3 hours ago

CYZR 221000Z AUTO 32006KT 9SM CLR M03/M07 A3037 RMK SLP293
Observed
Feb-22 @ 10:00 UTC
Wind
  • 320° at 6 KTS
Visibility
9 SM
Flight Rules
VFR
Cloud Levels
  • Clear skies
Temperature
-3°C / 27°F
Dewpoint
-7°C / 19°F
Humidity
74%
Altimeter
30.37" Hg
Pressure
1029.3 hPa